createdAt,value
2023-06-10T00:00:02.579Z,55.99
2023-06-10T00:02:29.202Z,56.46
2023-06-10T00:04:56.516Z,56.93
2023-06-10T00:07:23.001Z,57.35
2023-06-10T00:09:49.464Z,56.63
2023-06-10T00:12:17.903Z,56.51
2023-06-10T00:14:44.341Z,56.48
2023-06-10T00:17:10.983Z,56.30
2023-06-10T00:19:39.875Z,56.23
2023-06-10T00:22:06.460Z,56.15
2023-06-10T00:24:32.956Z,55.90
2023-06-10T00:26:59.395Z,55.99
2023-06-10T00:29:25.996Z,56.31
2023-06-10T00:31:54.781Z,56.51
2023-06-10T00:34:21.972Z,55.86
2023-06-10T00:36:48.390Z,56.65
2023-06-10T00:39:14.826Z,56.73
2023-06-10T00:41:41.245Z,57.07
2023-06-10T00:44:07.725Z,56.90
2023-06-10T00:46:35.038Z,57.38
2023-06-10T00:49:02.078Z,56.81
2023-06-10T00:51:28.787Z,57.26
2023-06-10T00:53:55.821Z,56.86
2023-06-10T00:56:23.192Z,56.96
2023-06-10T00:58:49.691Z,57.35
2023-06-10T01:01:16.436Z,57.41
2023-06-10T01:03:43.039Z,57.08
2023-06-10T01:06:10.842Z,56.97
2023-06-10T01:08:55.445Z,56.98
2023-06-10T01:11:30.738Z,57.12
2023-06-10T01:13:59.191Z,57.49
2023-06-10T01:16:26.563Z,57.57
2023-06-10T01:18:53.544Z,57.74
2023-06-10T01:21:25.745Z,57.80
2023-06-10T01:23:56.539Z,58.20
2023-06-10T01:26:31.096Z,58.25
2023-06-10T01:29:09.591Z,57.69
2023-06-10T01:31:54.270Z,58.90
2023-06-10T01:34:24.537Z,60.04
2023-06-10T01:36:51.784Z,59.03
2023-06-10T01:39:21.654Z,60.09
2023-06-10T01:41:49.835Z,60.30
2023-06-10T01:44:20.752Z,60.73
2023-06-10T01:46:47.654Z,60.62
2023-06-10T01:49:14.611Z,60.41
2023-06-10T01:51:41.334Z,59.98
2023-06-10T01:54:07.892Z,61.67
2023-06-10T01:56:34.677Z,61.26
2023-06-10T01:59:01.258Z,61.79
2023-06-10T02:01:27.760Z,61.91
2023-06-10T02:03:54.495Z,62.32
2023-06-10T02:06:21.226Z,63.98
2023-06-10T02:08:47.651Z,64.69
2023-06-10T02:11:14.187Z,65.41
2023-06-10T02:13:40.892Z,66.44
2023-06-10T02:16:07.475Z,66.58
2023-06-10T02:18:34.719Z,67.58
2023-06-10T02:21:01.188Z,67.86
2023-06-10T02:23:27.603Z,67.98
2023-06-10T02:25:54.059Z,69.50
2023-06-10T02:28:20.679Z,70.24
2023-06-10T02:30:47.942Z,69.67
2023-06-10T02:33:15.137Z,70.84
2023-06-10T02:35:42.074Z,71.15
2023-06-10T02:38:08.612Z,71.74
2023-06-10T02:40:35.044Z,71.82
2023-06-10T02:43:01.518Z,72.37
2023-06-10T02:45:27.962Z,73.32
2023-06-10T02:47:54.413Z,73.02
2023-06-10T02:50:21.051Z,73.18
2023-06-10T02:52:47.581Z,73.51
2023-06-10T02:55:14.035Z,74.23
2023-06-10T02:57:40.843Z,74.39
2023-06-10T03:00:11.948Z,74.79
2023-06-10T03:02:39.899Z,75.08
2023-06-10T03:05:11.301Z,74.96
2023-06-10T03:07:38.219Z,76.06
2023-06-10T03:10:05.139Z,77.06
2023-06-10T03:12:31.595Z,77.58
2023-06-10T03:14:58.039Z,78.12
2023-06-10T03:17:24.846Z,78.15
2023-06-10T03:19:51.295Z,78.12
2023-06-10T03:22:18.038Z,78.90
2023-06-10T03:24:44.747Z,78.98
2023-06-10T03:27:12.001Z,79.77
2023-06-10T03:29:38.685Z,80.25
2023-06-10T03:32:05.663Z,79.85
2023-06-10T03:34:32.150Z,79.98
2023-06-10T03:36:59.049Z,79.87
2023-06-10T03:39:25.550Z,80.81
2023-06-10T03:41:52.321Z,80.61
2023-06-10T03:44:19.127Z,80.44
2023-06-10T03:46:46.579Z,80.73
2023-06-10T03:49:14.650Z,80.73
2023-06-10T03:51:41.114Z,81.56
2023-06-10T03:54:07.648Z,82.05
2023-06-10T03:56:34.089Z,81.57
2023-06-10T03:59:01.226Z,81.74
2023-06-10T04:01:28.612Z,81.69
2023-06-10T04:03:55.439Z,82.24
2023-06-10T04:06:23.721Z,82.45
2023-06-10T04:08:50.199Z,82.02
2023-06-10T04:11:16.699Z,82.39
2023-06-10T04:13:43.123Z,83.51
2023-06-10T04:16:09.580Z,83.28
2023-06-10T04:18:37.213Z,83.38
2023-06-10T04:21:03.882Z,83.49
2023-06-10T04:23:30.364Z,83.83
2023-06-10T04:25:56.756Z,83.73
2023-06-10T04:28:23.146Z,83.32
2023-06-10T04:30:49.659Z,83.95
2023-06-10T04:33:16.061Z,84.34
2023-06-10T04:35:43.322Z,84.07
2023-06-10T04:38:09.982Z,84.13
2023-06-10T04:40:36.491Z,83.83
2023-06-10T04:43:02.948Z,83.41
2023-06-10T04:45:30.792Z,84.09
2023-06-10T04:47:59.180Z,84.63
2023-06-10T04:50:25.954Z,85.26
2023-06-10T04:52:52.366Z,84.74
2023-06-10T04:55:18.917Z,83.92
2023-06-10T04:57:45.357Z,83.72
2023-06-10T05:00:12.252Z,84.13
2023-06-10T05:02:38.731Z,84.34
2023-06-10T05:05:05.326Z,84.46
2023-06-10T05:07:31.758Z,84.84
2023-06-10T05:09:58.237Z,84.96
2023-06-10T05:12:24.653Z,84.46
2023-06-10T05:14:51.289Z,83.75
2023-06-10T05:17:17.736Z,84.64
2023-06-10T05:19:44.716Z,84.47
2023-06-10T05:22:11.441Z,84.46
2023-06-10T05:24:38.015Z,84.96
2023-06-10T05:27:04.775Z,85.07
2023-06-10T05:29:31.395Z,83.47
2023-06-10T05:31:58.804Z,84.33
2023-06-10T05:34:25.403Z,84.91
2023-06-10T05:36:52.071Z,84.08
2023-06-10T05:39:18.548Z,83.24
2023-06-10T05:41:45.259Z,83.60
2023-06-10T05:44:14.210Z,83.33
2023-06-10T05:46:40.927Z,83.35
2023-06-10T05:49:07.464Z,82.39
2023-06-10T05:51:33.907Z,82.34
2023-06-10T05:54:00.479Z,81.18
2023-06-10T05:56:26.956Z,80.52
2023-06-10T05:58:53.466Z,79.56
2023-06-10T06:01:20.049Z,78.60
2023-06-10T06:03:46.771Z,76.71
2023-06-10T06:06:13.409Z,76.33
2023-06-10T06:08:39.833Z,76.13
2023-06-10T06:11:06.350Z,73.42
2023-06-10T06:13:32.861Z,71.17
2023-06-10T06:15:59.408Z,70.51
2023-06-10T06:18:26.030Z,70.91
2023-06-10T06:20:52.460Z,69.89
2023-06-10T06:23:18.913Z,68.71
2023-06-10T06:25:45.431Z,65.30
2023-06-10T06:28:11.971Z,66.79
2023-06-10T06:30:38.439Z,65.40
2023-06-10T06:33:04.982Z,64.20
2023-06-10T06:35:33.169Z,62.81
2023-06-10T06:37:59.949Z,62.58
2023-06-10T06:40:26.760Z,62.08
2023-06-10T06:42:53.240Z,62.13
2023-06-10T06:45:19.663Z,60.75
2023-06-10T06:47:46.143Z,61.06
2023-06-10T06:50:12.679Z,60.72
2023-06-10T06:52:39.375Z,60.65
2023-06-10T06:55:06.499Z,59.60
2023-06-10T06:57:33.131Z,59.55
2023-06-10T06:59:59.703Z,59.84
2023-06-10T07:02:26.230Z,59.16
2023-06-10T07:04:56.399Z,57.08
2023-06-10T07:07:23.148Z,57.76
2023-06-10T07:09:49.623Z,57.58
2023-06-10T07:12:16.110Z,56.30
2023-06-10T07:14:42.734Z,55.31
2023-06-10T07:17:09.580Z,56.08
2023-06-10T07:19:36.193Z,54.68
2023-06-10T07:22:02.772Z,53.47
2023-06-10T07:24:29.213Z,53.67
2023-06-10T07:26:55.716Z,52.92
2023-06-10T07:29:22.289Z,53.76
2023-06-10T07:31:48.711Z,52.10
2023-06-10T07:34:15.191Z,52.46
2023-06-10T07:36:41.607Z,52.08
2023-06-10T07:39:08.847Z,52.67
2023-06-10T07:41:35.357Z,49.65
2023-06-10T07:44:01.835Z,48.65
2023-06-10T07:46:29.255Z,50.45
2023-06-10T07:48:55.935Z,50.40
2023-06-10T07:51:22.826Z,48.49
2023-06-10T07:53:49.315Z,48.54
2023-06-10T07:56:15.874Z,48.08
2023-06-10T07:58:42.347Z,49.94
2023-06-10T08:01:09.710Z,48.40
2023-06-10T08:03:36.183Z,47.30
2023-06-10T08:06:03.064Z,47.04
2023-06-10T08:08:29.564Z,45.22
2023-06-10T08:10:56.118Z,45.70
2023-06-10T08:13:22.550Z,45.89
2023-06-10T08:15:51.510Z,47.73
2023-06-10T08:18:18.164Z,46.70
2023-06-10T08:20:44.777Z,45.67
2023-06-10T08:23:11.224Z,46.29
2023-06-10T08:25:37.670Z,45.43
2023-06-10T08:28:04.115Z,46.35
2023-06-10T08:30:31.316Z,46.23
2023-06-10T08:32:57.838Z,45.79
2023-06-10T08:35:24.674Z,45.27
2023-06-10T08:37:51.157Z,45.92
2023-06-10T08:40:17.774Z,45.06
2023-06-10T08:42:49.916Z,42.50
2023-06-10T08:45:19.845Z,44.04
2023-06-10T08:47:47.843Z,42.15
2023-06-10T08:50:16.140Z,42.92
2023-06-10T08:52:44.767Z,43.08
2023-06-10T08:55:12.439Z,42.58
2023-06-10T08:57:39.289Z,42.70
2023-06-10T09:00:06.788Z,43.09
2023-06-10T09:02:36.387Z,42.48
2023-06-10T09:05:03.958Z,41.21
2023-06-10T09:07:32.576Z,40.13
2023-06-10T09:10:00.827Z,40.64
2023-06-10T09:12:27.264Z,40.79
2023-06-10T09:14:53.713Z,41.43
2023-06-10T09:17:20.351Z,41.51
2023-06-10T09:19:48.730Z,41.00
2023-06-10T09:22:15.466Z,42.05
2023-06-10T09:24:42.422Z,42.14
2023-06-10T09:27:09.896Z,42.74
2023-06-10T09:29:48.307Z,42.67
2023-06-10T09:32:15.574Z,41.30
2023-06-10T09:34:42.565Z,39.18
2023-06-10T09:37:13.040Z,40.23
2023-06-10T09:39:39.652Z,39.17
2023-06-10T09:42:26.633Z,38.91
2023-06-10T09:44:53.878Z,38.32
2023-06-10T09:47:23.789Z,36.93
2023-06-10T09:49:51.678Z,36.85
2023-06-10T09:52:28.992Z,37.63
2023-06-10T09:55:00.580Z,39.18
2023-06-10T09:57:30.734Z,37.51
2023-06-10T09:59:57.171Z,37.21
2023-06-10T10:02:23.636Z,37.19
2023-06-10T10:04:50.283Z,36.79
2023-06-10T10:07:16.846Z,35.30
2023-06-10T10:09:43.793Z,36.72
2023-06-10T10:12:12.311Z,36.12
2023-06-10T10:14:39.908Z,35.35
2023-06-10T10:17:14.687Z,34.33
2023-06-10T10:19:48.355Z,34.18
2023-06-10T10:22:42.111Z,35.37
2023-06-10T10:25:13.315Z,33.55
2023-06-10T10:27:40.143Z,34.97
2023-06-10T10:30:10.987Z,34.01
2023-06-10T10:32:49.981Z,33.59
2023-06-10T10:35:19.305Z,33.66
2023-06-10T10:37:47.599Z,34.67
2023-06-10T10:40:15.648Z,34.75
2023-06-10T10:42:42.804Z,34.30
2023-06-10T10:45:11.055Z,35.69
2023-06-10T10:47:39.624Z,36.33
2023-06-10T10:50:29.450Z,35.48
2023-06-10T10:53:00.320Z,36.93
2023-06-10T10:55:27.673Z,39.03
2023-06-10T10:58:08.404Z,37.86
2023-06-10T11:00:44.394Z,37.05
2023-06-10T11:03:17.292Z,37.07
2023-06-10T11:05:49.048Z,36.50
2023-06-10T11:08:36.111Z,34.22
2023-06-10T11:11:19.698Z,34.97
2023-06-10T11:14:07.933Z,33.33
2023-06-10T11:16:44.826Z,32.66
2023-06-10T11:19:32.686Z,33.50
2023-06-10T11:22:01.005Z,30.31
2023-06-10T11:24:27.748Z,31.16
2023-06-10T11:26:54.275Z,30.38
2023-06-10T11:29:21.679Z,31.61
2023-06-10T11:31:52.628Z,31.15
2023-06-10T11:34:24.696Z,30.13
2023-06-10T11:36:52.524Z,30.58
2023-06-10T11:39:21.080Z,31.38
2023-06-10T11:41:47.801Z,30.46
2023-06-10T11:44:18.222Z,29.70
2023-06-10T11:46:46.734Z,29.57
2023-06-10T11:49:13.377Z,29.61
2023-06-10T11:51:42.555Z,30.96
2023-06-10T11:54:12.046Z,30.04
2023-06-10T11:56:38.458Z,31.13
2023-06-10T11:59:08.360Z,34.58
2023-06-10T12:01:43.166Z,31.73
2023-06-10T12:04:16.667Z,32.56
2023-06-10T12:06:50.158Z,33.26
2023-06-10T12:09:30.551Z,32.95
2023-06-10T12:12:02.872Z,34.07
2023-06-10T12:14:51.073Z,34.65
2023-06-10T12:17:17.738Z,34.23
2023-06-10T12:19:44.327Z,35.07
2023-06-10T12:22:10.774Z,35.37
2023-06-10T12:24:45.818Z,35.62
2023-06-10T12:27:13.251Z,36.20
2023-06-10T12:29:39.702Z,35.48
2023-06-10T12:32:08.443Z,34.64
2023-06-10T12:34:37.630Z,35.02
2023-06-10T12:37:06.918Z,34.63
2023-06-10T12:39:36.426Z,33.01
2023-06-10T12:42:04.278Z,34.02
2023-06-10T12:44:35.397Z,33.44
2023-06-10T12:47:08.084Z,31.67
2023-06-10T12:49:34.540Z,33.78
2023-06-10T12:52:01.146Z,31.45
2023-06-10T12:54:27.729Z,31.96
2023-06-10T12:56:54.185Z,29.97
2023-06-10T12:59:20.709Z,29.61
2023-06-10T13:01:53.524Z,30.05
2023-06-10T13:04:20.603Z,30.29
2023-06-10T13:06:48.341Z,31.40
2023-06-10T13:09:15.026Z,32.42
2023-06-10T13:11:41.848Z,33.03
2023-06-10T13:14:08.277Z,34.40
2023-06-10T13:16:34.765Z,34.38
2023-06-10T13:19:03.705Z,35.00
2023-06-10T13:21:30.177Z,35.52
2023-06-10T13:23:56.763Z,35.67
2023-06-10T13:26:23.455Z,35.23
2023-06-10T13:28:49.874Z,35.80
2023-06-10T13:31:16.685Z,35.42
2023-06-10T13:33:44.703Z,37.98
2023-06-10T13:36:11.849Z,37.33
2023-06-10T13:38:38.292Z,38.39
2023-06-10T13:41:05.134Z,37.96
2023-06-10T13:43:31.691Z,37.15
2023-06-10T13:45:58.087Z,35.30
2023-06-10T13:48:24.619Z,38.29
2023-06-10T13:50:51.168Z,36.24
2023-06-10T13:53:17.732Z,36.89
2023-06-10T13:55:44.234Z,36.40
2023-06-10T13:58:10.692Z,36.30
2023-06-10T14:00:37.091Z,35.18
2023-06-10T14:03:04.685Z,35.45
2023-06-10T14:05:32.287Z,35.63
2023-06-10T14:07:58.851Z,37.04
2023-06-10T14:10:25.451Z,37.01
2023-06-10T14:12:52.441Z,36.72
2023-06-10T14:15:19.041Z,37.60
2023-06-10T14:17:45.608Z,36.86
2023-06-10T14:20:12.817Z,39.64
2023-06-10T14:22:39.270Z,37.46
2023-06-10T14:25:06.519Z,38.00
2023-06-10T14:27:33.126Z,38.11
2023-06-10T14:29:59.805Z,38.42
2023-06-10T14:32:26.383Z,38.12
2023-06-10T14:34:52.861Z,38.99
2023-06-10T14:37:19.412Z,38.87
2023-06-10T14:39:45.922Z,38.92
2023-06-10T14:42:12.445Z,39.02
2023-06-10T14:44:38.836Z,38.75
2023-06-10T14:47:05.666Z,39.85
2023-06-10T14:49:32.138Z,40.62
2023-06-10T14:51:58.584Z,39.89
2023-06-10T14:54:25.001Z,39.11
2023-06-10T14:56:51.464Z,39.54
2023-06-10T14:59:20.992Z,39.46
2023-06-10T15:01:48.111Z,38.41
2023-06-10T15:04:14.832Z,37.93
2023-06-10T15:06:42.530Z,37.79
2023-06-10T15:09:09.086Z,38.10
2023-06-10T15:11:35.656Z,38.08
2023-06-10T15:14:02.044Z,36.38
2023-06-10T15:16:28.564Z,36.66
2023-06-10T15:18:55.028Z,37.33
2023-06-10T15:21:21.424Z,37.29
2023-06-10T15:23:48.558Z,39.05
2023-06-10T15:26:15.209Z,40.02
2023-06-10T15:28:41.668Z,39.37
2023-06-10T15:31:09.161Z,38.70
2023-06-10T15:33:35.684Z,39.55
2023-06-10T15:36:02.523Z,39.97
2023-06-10T15:38:28.992Z,37.54
2023-06-10T15:40:56.679Z,38.03
2023-06-10T15:43:23.171Z,37.86
2023-06-10T15:45:49.678Z,36.84
2023-06-10T15:48:16.254Z,35.82
2023-06-10T15:50:42.793Z,37.75
2023-06-10T15:53:09.308Z,37.47
2023-06-10T15:55:35.787Z,36.49
2023-06-10T15:58:04.778Z,35.89
2023-06-10T16:00:31.294Z,36.03
2023-06-10T16:02:57.818Z,35.71
2023-06-10T16:05:24.379Z,36.33
2023-06-10T16:07:50.807Z,37.05
2023-06-10T16:10:17.292Z,36.74
2023-06-10T16:12:43.823Z,36.87
2023-06-10T16:15:11.180Z,37.13
2023-06-10T16:17:38.996Z,35.66
2023-06-10T16:20:06.621Z,37.49
2023-06-10T16:22:33.475Z,36.42
2023-06-10T16:24:59.917Z,36.64
2023-06-10T16:27:26.721Z,36.62
2023-06-10T16:29:56.274Z,36.65
2023-06-10T16:32:22.746Z,35.90
2023-06-10T16:34:49.235Z,36.04
2023-06-10T16:37:16.078Z,36.24
2023-06-10T16:39:42.507Z,36.34
2023-06-10T16:42:09.026Z,36.53
2023-06-10T16:44:35.464Z,37.05
2023-06-10T16:47:01.963Z,36.57
2023-06-10T16:49:28.375Z,37.44
2023-06-10T16:51:54.787Z,36.62
2023-06-10T16:54:21.197Z,37.26
2023-06-10T16:56:47.728Z,37.52
2023-06-10T16:59:14.258Z,36.83
2023-06-10T17:01:40.885Z,37.79
2023-06-10T17:04:07.429Z,37.69
2023-06-10T17:06:34.025Z,38.81
2023-06-10T17:09:00.482Z,38.21
2023-06-10T17:11:27.032Z,37.85
2023-06-10T17:13:53.624Z,38.44
2023-06-10T17:16:20.135Z,38.23
2023-06-10T17:18:46.803Z,37.78
2023-06-10T17:21:13.313Z,38.27
2023-06-10T17:23:39.779Z,38.03
2023-06-10T17:26:06.226Z,38.35
2023-06-10T17:28:32.733Z,38.59
2023-06-10T17:30:59.224Z,39.02
2023-06-10T17:33:25.879Z,38.66
2023-06-10T17:35:52.456Z,39.42
2023-06-10T17:38:21.027Z,40.15
2023-06-10T17:40:47.576Z,40.12
2023-06-10T17:43:14.055Z,40.49
2023-06-10T17:45:40.606Z,40.49
2023-06-10T17:48:07.158Z,40.49
2023-06-10T17:50:33.751Z,40.30
2023-06-10T17:53:00.310Z,40.23
2023-06-10T17:55:26.722Z,41.16
2023-06-10T17:57:53.228Z,41.21
2023-06-10T18:00:20.021Z,41.45
2023-06-10T18:02:46.509Z,41.97
2023-06-10T18:05:13.394Z,41.78
2023-06-10T18:07:40.139Z,41.77
2023-06-10T18:10:07.072Z,41.95
2023-06-10T18:12:33.697Z,41.86
2023-06-10T18:15:00.174Z,41.88
2023-06-10T18:17:26.724Z,42.01
2023-06-10T18:19:53.182Z,41.43
2023-06-10T18:22:19.880Z,41.95
2023-06-10T18:24:46.330Z,41.72
2023-06-10T18:27:16.396Z,41.85
2023-06-10T18:29:43.523Z,42.72
2023-06-10T18:32:10.632Z,42.59
2023-06-10T18:34:37.388Z,43.04
2023-06-10T18:37:04.552Z,42.73
2023-06-10T18:39:31.082Z,42.75
2023-06-10T18:41:57.536Z,43.20
2023-06-10T18:44:24.004Z,43.08
2023-06-10T18:46:50.588Z,43.31
2023-06-10T18:49:16.979Z,43.18
2023-06-10T18:51:43.427Z,42.99
2023-06-10T18:54:09.934Z,43.04
2023-06-10T18:56:36.532Z,43.23
2023-06-10T18:59:03.097Z,43.15
2023-06-10T19:01:29.763Z,43.18
2023-06-10T19:03:56.805Z,43.37
2023-06-10T19:06:23.621Z,43.81
2023-06-10T19:08:50.109Z,44.41
2023-06-10T19:11:17.306Z,44.21
2023-06-10T19:13:43.861Z,44.66
2023-06-10T19:16:10.586Z,45.43
2023-06-10T19:18:37.314Z,45.65
2023-06-10T19:21:06.997Z,46.13
2023-06-10T19:23:34.736Z,46.60
2023-06-10T19:26:01.666Z,46.80
2023-06-10T19:28:28.185Z,46.70
2023-06-10T19:30:54.619Z,46.54
2023-06-10T19:33:21.150Z,47.46
2023-06-10T19:35:47.654Z,47.04
2023-06-10T19:38:14.088Z,47.57
2023-06-10T19:40:40.595Z,48.02
2023-06-10T19:43:07.334Z,48.70
2023-06-10T19:45:33.738Z,48.40
2023-06-10T19:48:00.274Z,48.64
2023-06-10T19:50:26.788Z,48.11
2023-06-10T19:52:53.258Z,49.33
2023-06-10T19:55:19.738Z,48.79
2023-06-10T19:57:46.242Z,49.13
2023-06-10T20:00:13.039Z,49.49
2023-06-10T20:02:39.661Z,49.75
2023-06-10T20:05:06.400Z,50.37
2023-06-10T20:07:32.821Z,50.49
2023-06-10T20:09:59.309Z,51.27
2023-06-10T20:12:25.827Z,51.07
2023-06-10T20:14:52.257Z,51.70
2023-06-10T20:17:18.652Z,52.46
2023-06-10T20:19:49.090Z,52.99
2023-06-10T20:22:17.096Z,54.17
2023-06-10T20:24:43.590Z,53.81
2023-06-10T20:27:10.955Z,54.55
2023-06-10T20:29:37.580Z,54.49
2023-06-10T20:32:04.221Z,56.25
2023-06-10T20:34:30.727Z,57.19
2023-06-10T20:36:57.882Z,57.50
2023-06-10T20:39:25.896Z,58.44
2023-06-10T20:41:52.443Z,58.67
2023-06-10T20:44:18.835Z,58.13
2023-06-10T20:46:45.419Z,57.87
2023-06-10T20:49:14.324Z,58.21
2023-06-10T20:51:41.893Z,58.99
2023-06-10T20:54:08.309Z,58.13
2023-06-10T20:56:34.678Z,58.92
2023-06-10T20:59:01.409Z,57.87
2023-06-10T21:01:27.899Z,57.45
2023-06-10T21:03:54.601Z,58.18
2023-06-10T21:06:21.952Z,59.00
2023-06-10T21:08:48.584Z,58.88
2023-06-10T21:11:15.041Z,58.12
2023-06-10T21:13:41.613Z,58.26
2023-06-10T21:16:08.165Z,58.64
2023-06-10T21:18:35.806Z,58.88
2023-06-10T21:21:02.337Z,59.58
2023-06-10T21:23:28.772Z,59.24
2023-06-10T21:25:55.226Z,59.03
2023-06-10T21:28:21.748Z,59.50
2023-06-10T21:30:48.130Z,59.82
2023-06-10T21:33:14.557Z,60.20
2023-06-10T21:35:41.265Z,60.89
2023-06-10T21:38:07.749Z,60.91
2023-06-10T21:40:34.145Z,61.13
2023-06-10T21:43:00.648Z,59.54
2023-06-10T21:45:27.089Z,59.88
2023-06-10T21:47:53.610Z,60.12
2023-06-10T21:50:20.125Z,60.32
2023-06-10T21:52:46.552Z,61.18
2023-06-10T21:55:13.192Z,61.73
2023-06-10T21:57:39.997Z,61.22
2023-06-10T22:00:12.691Z,60.91
2023-06-10T22:02:40.500Z,60.81
2023-06-10T22:05:08.697Z,60.90
2023-06-10T22:07:36.172Z,61.65
2023-06-10T22:10:04.443Z,61.06
2023-06-10T22:12:31.306Z,59.47
2023-06-10T22:14:57.804Z,58.60
2023-06-10T22:17:24.322Z,58.37
2023-06-10T22:19:50.900Z,58.14
2023-06-10T22:22:18.462Z,56.79
2023-06-10T22:24:50.549Z,56.57
2023-06-10T22:27:17.132Z,56.61
2023-06-10T22:29:43.562Z,56.00
2023-06-10T22:32:10.063Z,56.80
2023-06-10T22:34:36.532Z,56.92
2023-06-10T22:37:03.017Z,56.21
2023-06-10T22:39:29.434Z,56.09
2023-06-10T22:41:55.953Z,55.63
2023-06-10T22:44:22.607Z,56.53
2023-06-10T22:46:49.121Z,55.89
2023-06-10T22:49:16.478Z,56.01
2023-06-10T22:51:44.285Z,55.13
2023-06-10T22:54:11.031Z,54.72
2023-06-10T22:56:37.479Z,54.70
2023-06-10T22:59:03.935Z,54.76
2023-06-10T23:01:30.997Z,54.32
2023-06-10T23:03:58.309Z,55.16
2023-06-10T23:06:24.996Z,55.97
2023-06-10T23:08:51.433Z,56.66
2023-06-10T23:11:17.812Z,57.40
2023-06-10T23:13:44.357Z,58.66
2023-06-10T23:16:10.886Z,59.65
2023-06-10T23:18:37.616Z,58.72
2023-06-10T23:21:04.238Z,58.10
2023-06-10T23:23:34.868Z,58.85
2023-06-10T23:26:02.403Z,59.88
2023-06-10T23:28:28.876Z,59.16
2023-06-10T23:30:55.978Z,59.63
2023-06-10T23:33:23.584Z,57.82
2023-06-10T23:35:50.339Z,58.22
2023-06-10T23:38:16.872Z,57.58
2023-06-10T23:40:43.323Z,56.92
2023-06-10T23:43:11.319Z,57.52
2023-06-10T23:45:37.818Z,56.78
2023-06-10T23:48:04.927Z,56.88
2023-06-10T23:50:31.642Z,56.63
2023-06-10T23:52:58.075Z,56.16
2023-06-10T23:55:25.395Z,56.01
2023-06-10T23:57:51.999Z,56.12
